createdAt,value
2017-11-27T08:59:40.207Z,5660.00
2017-11-27T09:00:45.876Z,5064.00
2017-11-27T09:01:52.021Z,4676.00
2017-11-27T09:02:58.651Z,4908.00
2017-11-27T09:04:04.844Z,4980.00
2017-11-27T09:05:11.566Z,5132.00
2017-11-27T09:06:16.599Z,5948.00
2017-11-27T09:07:22.770Z,6048.00
2017-11-27T09:08:28.948Z,6052.00
2017-11-27T09:09:35.352Z,6000.00
2017-11-27T09:10:41.209Z,5544.00
2017-11-27T09:11:47.353Z,4748.00
2017-11-27T09:12:54.504Z,5144.00
2017-11-27T09:13:59.688Z,5608.00
2017-11-27T09:15:05.833Z,4792.00
2017-11-27T09:16:12.183Z,5220.00
2017-11-27T09:17:18.311Z,5344.00
2017-11-27T09:18:24.567Z,4960.00
2017-11-27T09:19:30.537Z,5004.00
2017-11-27T09:20:36.614Z,5528.00
2017-11-27T09:21:42.816Z,5812.00
2017-11-27T09:22:49.062Z,7552.00
2017-11-27T09:23:55.323Z,7220.00
2017-11-27T09:25:01.270Z,7952.00
2017-11-27T09:26:07.455Z,7672.00
2017-11-27T09:27:13.593Z,7872.00
2017-11-27T09:28:19.760Z,8372.00
2017-11-27T09:29:26.000Z,7092.00
2017-11-27T09:30:32.093Z,6612.00
2017-11-27T09:31:38.252Z,6724.00
2017-11-27T09:32:44.469Z,6624.00
2017-11-27T09:33:51.578Z,5696.00
2017-11-27T09:34:56.851Z,6208.00
2017-11-27T09:36:03.425Z,5956.00
2017-11-27T09:37:09.073Z,5488.00
2017-11-27T09:38:15.327Z,5184.00
2017-11-27T09:39:21.390Z,5508.00
2017-11-27T09:40:27.689Z,5376.00
2017-11-27T09:41:33.772Z,4724.00
2017-11-27T09:42:40.503Z,4724.00
2017-11-27T09:43:46.093Z,4460.00
2017-11-27T09:44:52.330Z,4328.00
2017-11-27T09:45:58.907Z,4512.00
2017-11-27T09:47:05.033Z,4764.00
2017-11-27T09:48:10.675Z,4808.00
2017-11-27T09:49:17.595Z,4832.00
2017-11-27T09:50:23.556Z,4664.00
2017-11-27T09:51:29.144Z,4668.00
2017-11-27T09:52:35.870Z,4636.00
2017-11-27T09:53:41.873Z,4716.00
2017-11-27T09:54:47.539Z,4868.00
2017-11-27T09:55:54.258Z,4920.00
2017-11-27T09:57:00.639Z,4656.00
2017-11-27T09:58:06.632Z,4628.00
2017-11-27T09:59:13.005Z,5328.00
2017-11-27T10:01:24.910Z,5020.00
2017-11-27T10:02:31.200Z,3588.00
2017-11-27T10:03:37.450Z,2680.00
2017-11-27T10:04:43.430Z,2948.00
2017-11-27T10:05:49.506Z,3044.00
2017-11-27T10:06:55.655Z,3744.00
2017-11-27T10:08:01.876Z,3564.00
2017-11-27T10:09:07.969Z,5420.00
2017-11-27T10:10:14.111Z,5096.00
2017-11-27T10:11:20.256Z,4624.00
2017-11-27T10:12:26.381Z,4948.00
2017-11-27T10:13:31.978Z,4408.00
2017-11-27T10:14:38.104Z,3968.00
2017-11-27T10:15:44.210Z,3472.00
2017-11-27T10:16:50.466Z,3244.00
2017-11-27T10:17:57.561Z,3688.00
2017-11-27T10:19:02.653Z,3228.00
2017-11-27T10:20:08.950Z,2844.00
2017-11-27T10:21:15.078Z,3184.00
2017-11-27T10:22:21.661Z,2940.00
2017-11-27T10:23:27.748Z,3216.00
2017-11-27T10:24:33.333Z,3584.00
2017-11-27T10:25:39.444Z,3756.00
2017-11-27T10:26:45.589Z,3496.00
2017-11-27T10:27:51.818Z,3496.00
2017-11-27T10:28:57.876Z,3724.00
2017-11-27T10:30:03.987Z,4916.00
2017-11-27T10:31:10.656Z,4580.00
2017-11-27T10:32:16.836Z,4628.00
2017-11-27T10:33:23.187Z,4544.00
2017-11-27T10:34:28.555Z,4672.00
2017-11-27T10:35:35.128Z,4544.00
2017-11-27T10:36:41.337Z,4324.00
2017-11-27T10:37:47.480Z,4696.00
2017-11-27T10:38:53.641Z,4360.00
2017-11-27T10:41:05.492Z,4200.00
2017-11-27T10:42:11.981Z,3864.00
2017-11-27T10:43:18.190Z,3832.00
2017-11-27T10:44:24.295Z,3748.00
2017-11-27T10:45:29.890Z,4240.00
2017-11-27T10:46:36.030Z,4352.00
2017-11-27T10:47:42.295Z,4888.00
2017-11-27T10:48:48.605Z,4968.00
2017-11-27T10:49:55.128Z,4296.00
2017-11-27T10:51:00.677Z,4788.00
2017-11-27T10:52:07.456Z,5468.00
2017-11-27T10:53:13.518Z,4224.00
2017-11-27T10:54:19.235Z,4516.00
2017-11-27T10:55:25.296Z,4608.00
2017-11-27T10:56:31.918Z,3912.00
2017-11-27T10:57:37.993Z,4748.00
2017-11-27T10:58:43.822Z,3476.00
2017-11-27T10:59:49.743Z,3708.00
2017-11-27T11:00:56.450Z,3804.00
2017-11-27T11:02:02.600Z,4296.00
2017-11-27T11:03:08.235Z,3728.00
2017-11-27T11:04:14.393Z,4056.00
2017-11-27T11:05:20.972Z,4136.00
2017-11-27T11:06:27.262Z,3688.00
2017-11-27T11:07:32.758Z,4020.00
2017-11-27T11:08:39.072Z,4044.00
2017-11-27T11:09:45.639Z,4748.00
2017-11-27T11:10:51.777Z,4976.00
2017-11-27T11:11:57.993Z,5100.00
2017-11-27T11:13:03.568Z,4828.00
2017-11-27T11:14:10.339Z,4972.00
2017-11-27T11:15:16.310Z,5948.00
2017-11-27T11:16:22.408Z,7224.00
2017-11-27T11:17:28.613Z,7088.00
2017-11-27T11:18:34.785Z,5892.00
2017-11-27T11:19:40.358Z,4968.00
2017-11-27T11:20:47.068Z,5500.00
2017-11-27T11:21:52.654Z,5036.00
2017-11-27T11:22:58.859Z,4336.00
2017-11-27T11:24:05.536Z,5148.00
2017-11-27T11:26:17.897Z,4664.00
2017-11-27T11:27:23.536Z,4784.00
2017-11-27T11:28:29.688Z,3960.00
2017-11-27T11:29:36.017Z,4888.00
2017-11-27T11:30:41.889Z,4164.00
2017-11-27T11:31:48.069Z,4024.00
2017-11-27T11:32:54.292Z,4356.00
2017-11-27T11:34:00.360Z,2992.00
2017-11-27T11:35:06.486Z,2748.00
2017-11-27T11:36:13.266Z,2932.00
2017-11-27T11:37:19.430Z,3784.00
2017-11-27T11:38:25.550Z,4012.00
2017-11-27T11:39:31.893Z,3916.00
2017-11-27T11:40:37.830Z,3708.00
2017-11-27T11:41:43.447Z,3752.00
2017-11-27T11:42:50.190Z,3368.00
2017-11-27T11:43:56.343Z,2992.00
2017-11-27T11:45:02.394Z,3460.00
2017-11-27T11:46:08.608Z,2836.00
2017-11-27T11:47:14.703Z,2936.00
2017-11-27T11:48:20.921Z,3704.00
2017-11-27T11:49:27.147Z,3988.00
2017-11-27T11:50:33.281Z,3340.00
2017-11-27T11:51:39.382Z,3440.00
2017-11-27T11:52:46.654Z,3112.00
2017-11-27T11:53:51.922Z,3028.00
2017-11-27T11:54:58.190Z,3468.00
2017-11-27T11:56:04.953Z,3028.00
2017-11-27T11:57:10.145Z,2924.00
2017-11-27T11:58:16.238Z,3124.00
2017-11-27T11:59:23.425Z,2576.00
2017-11-27T12:00:28.439Z,3048.00
2017-11-27T12:01:34.665Z,2760.00
2017-11-27T12:02:40.815Z,3260.00
2017-11-27T12:03:46.428Z,3928.00
2017-11-27T12:04:53.117Z,4248.00
2017-11-27T12:05:59.269Z,4244.00
2017-11-27T12:07:05.497Z,4504.00
2017-11-27T12:08:11.645Z,4656.00
2017-11-27T12:09:17.974Z,4600.00
2017-11-27T12:10:23.945Z,5340.00
2017-11-27T12:11:29.582Z,4552.00
2017-11-27T12:12:36.391Z,4032.00
2017-11-27T12:13:42.377Z,3604.00
2017-11-27T12:14:48.733Z,4112.00
2017-11-27T12:15:54.699Z,3428.00
2017-11-27T12:17:00.285Z,3620.00
2017-11-27T12:18:06.934Z,2892.00
2017-11-27T12:19:13.184Z,3312.00
2017-11-27T12:20:19.305Z,3176.00
2017-11-27T12:21:25.456Z,3520.00
2017-11-27T12:22:31.231Z,3864.00
2017-11-27T12:23:37.686Z,3136.00
2017-11-27T12:24:43.886Z,4372.00
2017-11-27T12:25:50.085Z,3648.00
2017-11-27T12:26:56.249Z,4096.00
2017-11-27T12:28:02.416Z,5248.00
2017-11-27T12:29:08.533Z,4640.00
2017-11-27T12:30:14.701Z,4140.00
2017-11-27T12:31:20.917Z,3072.00
2017-11-27T12:32:27.008Z,4412.00
2017-11-27T12:33:33.097Z,4492.00
2017-11-27T12:34:39.592Z,4504.00
2017-11-27T12:36:51.672Z,3744.00
2017-11-27T12:37:57.754Z,5116.00
2017-11-27T12:39:04.089Z,4300.00
2017-11-27T12:40:10.125Z,4820.00
2017-11-27T12:41:15.811Z,4736.00
2017-11-27T12:42:21.959Z,3776.00
2017-11-27T12:43:28.789Z,4036.00
2017-11-27T12:44:34.829Z,4408.00
2017-11-27T12:45:40.910Z,5092.00
2017-11-27T12:46:47.061Z,4364.00
2017-11-27T12:47:52.823Z,4152.00
2017-11-27T12:48:58.902Z,4376.00
2017-11-27T12:50:05.184Z,4664.00
2017-11-27T12:51:11.358Z,4088.00
2017-11-27T12:52:17.363Z,5048.00
2017-11-27T12:53:23.509Z,4964.00
2017-11-27T12:54:29.684Z,3812.00
2017-11-27T12:55:36.595Z,4576.00
2017-11-27T12:56:41.993Z,4700.00
2017-11-27T12:57:48.817Z,5316.00
2017-11-27T12:58:54.418Z,4064.00
2017-11-27T13:00:02.025Z,5092.00
2017-11-27T13:01:08.457Z,3904.00
2017-11-27T13:02:13.457Z,4288.00
2017-11-27T13:03:19.612Z,3364.00
2017-11-27T13:04:26.045Z,4116.00
2017-11-27T13:05:32.197Z,3648.00
2017-11-27T13:06:38.155Z,3376.00
2017-11-27T13:07:44.357Z,3716.00
2017-11-27T13:08:50.431Z,2892.00
2017-11-27T13:09:56.693Z,3248.00
2017-11-27T13:11:02.703Z,3576.00
2017-11-27T13:12:08.416Z,3872.00
2017-11-27T13:13:15.133Z,3940.00
2017-11-27T13:14:20.676Z,3260.00
2017-11-27T13:15:28.580Z,4160.00
2017-11-27T13:16:34.710Z,3532.00
2017-11-27T13:17:39.810Z,4176.00
2017-11-27T13:18:45.939Z,4696.00
2017-11-27T13:19:52.224Z,3612.00
2017-11-27T13:20:59.394Z,3532.00
2017-11-27T13:22:03.897Z,3996.00
2017-11-27T13:23:11.974Z,3332.00
2017-11-27T13:24:16.971Z,3280.00
2017-11-27T13:25:22.876Z,3236.00
2017-11-27T13:26:29.068Z,3288.00
2017-11-27T13:27:35.356Z,3616.00
2017-11-27T13:28:40.810Z,3348.00
2017-11-27T13:29:47.502Z,4112.00
2017-11-27T13:30:54.900Z,3016.00
2017-11-27T13:32:01.123Z,2552.00
2017-11-27T13:33:06.070Z,4456.00
2017-11-27T13:34:12.458Z,2932.00
2017-11-27T13:35:18.333Z,3652.00
2017-11-27T13:36:24.665Z,3116.00
2017-11-27T13:37:30.647Z,2912.00
2017-11-27T13:38:36.857Z,2692.00
2017-11-27T13:39:42.972Z,2840.00
2017-11-27T13:40:49.092Z,2984.00
2017-11-27T13:41:55.275Z,2672.00
2017-11-27T13:43:01.390Z,2632.00
2017-11-27T13:44:07.647Z,2576.00
2017-11-27T13:45:13.966Z,2828.00
2017-11-27T13:46:20.023Z,2428.00
2017-11-27T13:47:26.167Z,2556.00
2017-11-27T13:48:32.262Z,2356.00
2017-11-27T13:49:38.656Z,2424.00
2017-11-27T13:50:44.105Z,1952.00
2017-11-27T13:51:50.704Z,2008.00
2017-11-27T13:52:56.851Z,2356.00
2017-11-27T13:54:03.007Z,1688.00
2017-11-27T13:55:09.173Z,2080.00
2017-11-27T13:56:15.439Z,1880.00
2017-11-27T13:57:21.565Z,2464.00
2017-11-27T13:58:27.870Z,2432.00
2017-11-27T13:59:33.883Z,2004.00
2017-11-27T14:00:39.937Z,1832.00
2017-11-27T14:01:46.161Z,1924.00
2017-11-27T14:02:52.387Z,1968.00
2017-11-27T14:03:58.620Z,1792.00
2017-11-27T14:05:04.639Z,1712.00
2017-11-27T14:06:10.839Z,1364.00
2017-11-27T14:07:16.920Z,1744.00
2017-11-27T14:08:23.175Z,1572.00
2017-11-27T14:09:30.302Z,1436.00
2017-11-27T14:10:35.447Z,1368.00
2017-11-27T14:11:41.608Z,1184.00
2017-11-27T14:12:47.750Z,1012.00
2017-11-27T14:13:53.828Z,1420.00
2017-11-27T14:14:59.992Z,1160.00
2017-11-27T14:16:06.245Z,1272.00
2017-11-27T14:17:12.374Z,1256.00
2017-11-27T14:18:20.099Z,1464.00
2017-11-27T14:19:24.609Z,1180.00
2017-11-27T14:20:30.332Z,1040.00
2017-11-27T14:21:36.993Z,1060.00
2017-11-27T14:22:43.216Z,1240.00
2017-11-27T14:23:49.513Z,1168.00
2017-11-27T14:24:55.382Z,1384.00
2017-11-27T14:26:01.666Z,1132.00
2017-11-27T14:27:07.757Z,1236.00
2017-11-27T14:28:13.811Z,1120.00
2017-11-27T14:29:20.059Z,1068.00
2017-11-27T14:30:26.482Z,876.00
2017-11-27T14:31:33.354Z,984.00
2017-11-27T14:32:38.509Z,1040.00
2017-11-27T14:33:44.619Z,912.00
2017-11-27T14:34:50.817Z,848.00
2017-11-27T14:35:57.221Z,1016.00
2017-11-27T14:37:02.666Z,916.00
2017-11-27T14:38:09.406Z,772.00
2017-11-27T14:39:15.487Z,784.00
2017-11-27T14:40:21.642Z,640.00
2017-11-27T14:41:27.784Z,788.00
2017-11-27T14:42:34.011Z,676.00
2017-11-27T14:43:40.086Z,732.00
2017-11-27T14:44:46.460Z,648.00
2017-11-27T14:45:52.388Z,636.00
2017-11-27T14:46:58.544Z,560.00
2017-11-27T14:48:04.561Z,484.00
2017-11-27T14:49:10.841Z,496.00
2017-11-27T14:50:18.200Z,588.00
2017-11-27T14:51:23.097Z,688.00
2017-11-27T14:52:29.218Z,584.00
2017-11-27T14:53:35.370Z,580.00
2017-11-27T14:54:41.538Z,500.00
2017-11-27T14:55:47.749Z,552.00
2017-11-27T14:56:53.921Z,584.00
2017-11-27T14:57:59.879Z,560.00
2017-11-27T14:59:06.141Z,436.00
2017-11-27T15:00:12.295Z,464.00
2017-11-27T15:01:18.441Z,368.00
2017-11-27T15:02:24.490Z,324.00
2017-11-27T15:03:30.739Z,340.00
2017-11-27T15:04:36.818Z,304.00
2017-11-27T15:05:43.007Z,292.00
2017-11-27T15:06:49.108Z,288.00
2017-11-27T15:07:55.238Z,324.00
2017-11-27T15:09:01.395Z,264.00
2017-11-27T15:10:07.556Z,232.00
2017-11-27T15:11:13.693Z,208.00
2017-11-27T15:12:19.838Z,192.00
2017-11-27T15:13:26.078Z,184.00
2017-11-27T15:14:32.164Z,180.00
2017-11-27T15:15:38.308Z,180.00
2017-11-27T15:16:44.540Z,156.00
2017-11-27T15:17:50.600Z,152.00
2017-11-27T15:18:56.753Z,132.00
2017-11-27T15:20:03.002Z,100.00
2017-11-27T15:21:08.998Z,112.00
2017-11-27T15:22:15.209Z,96.00
2017-11-27T15:23:21.427Z,92.00
2017-11-27T15:24:27.505Z,84.00
2017-11-27T15:25:34.592Z,80.00
2017-11-27T15:26:39.820Z,80.00
2017-11-27T15:27:45.960Z,76.00
2017-11-27T15:28:53.105Z,68.00
2017-11-27T15:29:57.678Z,60.00
2017-11-27T15:31:04.500Z,64.00
2017-11-27T15:32:10.500Z,48.00
2017-11-27T15:33:16.624Z,52.00
2017-11-27T15:34:22.840Z,52.00
2017-11-27T15:35:28.964Z,40.00
2017-11-27T15:36:35.066Z,36.00
2017-11-27T15:37:41.294Z,24.00
2017-11-27T15:38:47.393Z,24.00
2017-11-27T15:39:53.699Z,24.00
2017-11-27T15:40:59.818Z,20.00
2017-11-27T15:42:05.839Z,16.00
2017-11-27T15:43:12.016Z,12.00
2017-11-27T15:44:18.208Z,12.00
2017-11-27T15:45:24.295Z,8.00
2017-11-27T15:46:30.627Z,4.00
2017-11-27T15:47:36.742Z,4.00
2017-11-27T15:48:42.726Z,4.00
2017-11-27T15:49:48.822Z,4.00
2017-11-27T15:50:54.943Z,4.00
2017-11-27T15:52:01.073Z,4.00
2017-11-27T15:53:07.317Z,0.00
2017-11-27T15:54:13.457Z,0.00
2017-11-27T15:55:19.721Z,0.00
2017-11-27T15:56:25.682Z,0.00
2017-11-27T15:57:31.843Z,0.00
2017-11-27T15:58:38.062Z,0.00
2017-11-27T15:59:44.525Z,0.00
2017-11-27T16:00:50.362Z,0.00
2017-11-27T16:01:56.444Z,0.00
2017-11-27T16:03:02.743Z,0.00
2017-11-27T16:04:08.752Z,0.00
2017-11-27T16:05:16.075Z,0.00
2017-11-27T16:06:21.149Z,0.00
2017-11-27T16:07:27.272Z,0.00
2017-11-27T16:08:33.333Z,0.00
2017-11-27T16:09:39.505Z,0.00
2017-11-27T16:10:45.641Z,0.00
2017-11-27T16:11:51.731Z,0.00
2017-11-27T16:12:58.010Z,0.00
2017-11-27T16:14:04.015Z,0.00
2017-11-27T16:15:10.360Z,0.00
2017-11-27T16:16:16.320Z,0.00
2017-11-27T16:17:22.458Z,0.00
2017-11-27T16:18:28.678Z,0.00
2017-11-27T16:19:34.832Z,0.00
2017-11-27T16:20:40.416Z,0.00
2017-11-27T16:21:46.559Z,0.00
2017-11-27T16:22:53.221Z,0.00
2017-11-27T16:23:59.281Z,0.00
2017-11-27T16:25:05.738Z,0.00
2017-11-27T16:26:11.669Z,0.00
2017-11-27T16:27:17.865Z,0.00
2017-11-27T16:28:24.015Z,0.00
2017-11-27T16:29:30.145Z,0.00
2017-11-27T16:30:36.475Z,0.00
2017-11-27T16:31:42.449Z,0.00
2017-11-27T16:32:48.476Z,0.00
2017-11-27T16:33:55.799Z,0.00
2017-11-27T16:35:01.948Z,0.00
2017-11-27T16:36:06.997Z,0.00
2017-11-27T16:37:13.156Z,0.00
2017-11-27T16:38:19.309Z,0.00
2017-11-27T16:39:25.293Z,0.00
2017-11-27T16:40:31.452Z,0.00
2017-11-27T16:41:38.618Z,0.00
2017-11-27T16:42:43.723Z,0.00
2017-11-27T16:43:49.891Z,0.00
2017-11-27T16:44:56.325Z,0.00
2017-11-27T16:46:03.413Z,0.00
2017-11-27T16:47:08.342Z,0.00
2017-11-27T16:48:14.564Z,0.00
2017-11-27T16:49:20.714Z,0.00
2017-11-27T16:50:27.143Z,0.00
2017-11-27T16:51:32.958Z,0.00
2017-11-27T16:52:39.089Z,0.00
2017-11-27T16:53:45.317Z,0.00
2017-11-27T16:54:51.669Z,0.00
2017-11-27T16:55:57.557Z,0.00
2017-11-27T16:57:03.740Z,0.00
2017-11-27T16:58:09.751Z,0.00
2017-11-27T16:59:15.974Z,0.00
2017-11-27T17:00:22.404Z,0.00
2017-11-27T17:01:28.240Z,0.00
2017-11-27T17:02:34.429Z,0.00
2017-11-27T17:03:40.571Z,0.00
2017-11-27T17:04:46.730Z,0.00
2017-11-27T17:05:53.764Z,0.00
2017-11-27T17:06:59.030Z,0.00
2017-11-27T17:08:06.028Z,0.00
2017-11-27T17:09:12.180Z,0.00
2017-11-27T17:10:17.434Z,0.00
2017-11-27T17:11:23.425Z,0.00
2017-11-27T17:12:30.676Z,0.00
2017-11-27T17:13:35.876Z,0.00
2017-11-27T17:14:42.019Z,0.00
2017-11-27T17:15:48.313Z,0.00
2017-11-27T17:16:55.497Z,0.00
2017-11-27T17:18:01.764Z,0.00
2017-11-27T17:19:06.615Z,0.00
2017-11-27T17:20:12.705Z,0.00
2017-11-27T17:21:18.726Z,0.00
2017-11-27T17:22:24.872Z,0.00
2017-11-27T17:23:31.048Z,0.00
2017-11-27T17:24:37.255Z,0.00
2017-11-27T17:25:43.572Z,0.00
2017-11-27T17:26:49.531Z,0.00
2017-11-27T17:27:56.722Z,0.00
2017-11-27T17:29:01.774Z,0.00
2017-11-27T17:30:08.103Z,0.00
2017-11-27T17:31:14.077Z,0.00
2017-11-27T17:32:20.231Z,0.00
2017-11-27T17:33:28.836Z,0.00
2017-11-27T17:34:32.429Z,0.00
2017-11-27T17:35:38.629Z,0.00
2017-11-27T17:36:44.750Z,0.00
2017-11-27T17:37:51.920Z,0.00
2017-11-27T17:40:12.164Z,0.00
2017-11-27T17:41:18.655Z,0.00
2017-11-27T17:42:25.306Z,0.00
2017-11-27T17:43:30.912Z,0.00
2017-11-27T17:44:35.980Z,0.00
2017-11-27T17:45:42.264Z,0.00
2017-11-27T17:46:49.686Z,0.00
2017-11-27T17:47:55.558Z,0.00
2017-11-27T17:49:00.583Z,0.00
2017-11-27T17:50:08.315Z,0.00
2017-11-27T17:51:12.916Z,0.00
2017-11-27T17:52:19.320Z,0.00
2017-11-27T17:53:26.208Z,0.00
2017-11-27T17:54:31.486Z,0.00
2017-11-27T17:55:38.858Z,0.00
2017-11-27T17:56:44.658Z,0.00
2017-11-27T17:57:49.904Z,0.00
2017-11-27T17:58:55.958Z,0.00
2017-11-27T18:00:01.997Z,0.00
2017-11-27T18:01:08.320Z,0.00
2017-11-27T18:02:14.604Z,0.00
2017-11-27T18:03:20.442Z,0.00
2017-11-27T18:04:26.689Z,0.00
2017-11-27T18:05:32.926Z,0.00
2017-11-27T18:06:38.970Z,0.00
2017-11-27T18:07:45.124Z,0.00
2017-11-27T18:08:51.205Z,0.00
2017-11-27T18:09:57.358Z,0.00
2017-11-27T18:11:03.428Z,0.00
2017-11-27T18:12:09.596Z,0.00
2017-11-27T18:13:15.708Z,0.00
2017-11-27T18:14:21.517Z,0.00
2017-11-27T18:15:28.102Z,0.00
2017-11-27T18:16:34.231Z,0.00
2017-11-27T18:17:41.021Z,0.00
2017-11-27T18:18:46.840Z,0.00
2017-11-27T18:19:52.683Z,0.00
2017-11-27T18:20:58.787Z,0.00
2017-11-27T18:22:05.096Z,0.00
2017-11-27T18:23:10.975Z,0.00
2017-11-27T18:24:17.281Z,0.00
2017-11-27T18:25:23.590Z,0.00
2017-11-27T18:26:29.486Z,0.00
2017-11-27T18:27:36.639Z,0.00
2017-11-27T18:28:41.718Z,0.00
2017-11-27T18:29:47.942Z,0.00
2017-11-27T18:30:54.278Z,0.00
2017-11-27T18:32:00.122Z,0.00
2017-11-27T18:33:06.639Z,0.00
2017-11-27T18:34:12.622Z,0.00
2017-11-27T18:35:18.633Z,0.00
2017-11-27T18:36:24.709Z,0.00
2017-11-27T18:37:31.001Z,0.00
2017-11-27T18:38:37.140Z,0.00
2017-11-27T18:39:43.304Z,0.00
2017-11-27T18:40:50.995Z,0.00
2017-11-27T18:41:55.438Z,0.00
2017-11-27T18:43:02.782Z,0.00
2017-11-27T18:44:08.936Z,0.00
2017-11-27T18:45:14.994Z,0.00
2017-11-27T18:46:20.290Z,0.00
2017-11-27T18:47:26.595Z,0.00
2017-11-27T18:48:33.537Z,0.00
2017-11-27T18:49:38.928Z,0.00
2017-11-27T18:50:44.832Z,0.00
2017-11-27T18:51:50.866Z,0.00
2017-11-27T18:52:57.118Z,0.00
2017-11-27T18:54:03.000Z,0.00
2017-11-27T18:55:09.513Z,0.00
2017-11-27T18:56:15.572Z,0.00
2017-11-27T18:57:22.540Z,0.00
2017-11-27T18:58:28.736Z,0.00
2017-11-27T18:59:33.920Z,0.00
2017-11-27T19:00:40.946Z,0.00
2017-11-27T19:01:46.053Z,0.00
2017-11-27T19:02:52.199Z,0.00
2017-11-27T19:03:58.360Z,0.00
2017-11-27T19:05:05.532Z,0.00
2017-11-27T19:06:10.669Z,0.00
2017-11-27T19:07:17.257Z,0.00
2017-11-27T19:08:23.030Z,0.00
2017-11-27T19:09:29.143Z,0.00
2017-11-27T19:10:35.623Z,0.00
2017-11-27T19:11:41.647Z,0.00
2017-11-27T19:12:47.605Z,0.00
2017-11-27T19:13:53.699Z,0.00
2017-11-27T19:14:59.793Z,0.00
2017-11-27T19:16:05.954Z,0.00
2017-11-27T19:17:12.135Z,0.00
2017-11-27T19:18:18.653Z,0.00
2017-11-27T19:19:24.568Z,0.00
2017-11-27T19:20:30.520Z,0.00
2017-11-27T19:21:36.724Z,0.00
2017-11-27T19:22:42.910Z,0.00
2017-11-27T19:23:48.977Z,0.00
2017-11-27T19:24:55.159Z,0.00
2017-11-27T19:26:01.195Z,0.00
2017-11-27T19:27:08.557Z,0.00
2017-11-27T19:28:13.653Z,0.00
2017-11-27T19:29:19.731Z,0.00
2017-11-27T19:30:25.974Z,0.00
2017-11-27T19:31:31.942Z,0.00
2017-11-27T19:32:38.145Z,0.00
2017-11-27T19:33:44.286Z,0.00
2017-11-27T19:34:51.511Z,0.00
2017-11-27T19:35:56.658Z,0.00
2017-11-27T19:37:04.195Z,0.00
2017-11-27T19:38:08.775Z,0.00
2017-11-27T19:39:15.160Z,0.00
2017-11-27T19:40:21.077Z,0.00
2017-11-27T19:41:28.885Z,0.00
2017-11-27T19:42:33.524Z,0.00
2017-11-27T19:43:39.539Z,0.00
2017-11-27T19:44:46.909Z,0.00
2017-11-27T19:45:51.966Z,0.00
2017-11-27T19:46:57.951Z,0.00
2017-11-27T19:48:04.104Z,0.00
2017-11-27T19:49:10.381Z,0.00
2017-11-27T19:50:16.482Z,0.00
2017-11-27T19:51:22.895Z,0.00
2017-11-27T19:52:28.773Z,0.00
2017-11-27T19:53:34.951Z,0.00
2017-11-27T19:54:40.993Z,0.00
2017-11-27T19:55:47.323Z,0.00
2017-11-27T19:56:53.603Z,0.00
2017-11-27T19:57:59.538Z,0.00
2017-11-27T19:59:05.709Z,0.00
2017-11-27T20:00:11.678Z,0.00
2017-11-27T20:01:17.334Z,0.00
2017-11-27T20:02:24.065Z,0.00
2017-11-27T20:03:30.177Z,0.00
2017-11-27T20:04:36.334Z,0.00
2017-11-27T20:05:42.415Z,0.00
2017-11-27T20:06:48.570Z,0.00
2017-11-27T20:07:54.714Z,0.00
2017-11-27T20:09:00.965Z,0.00
2017-11-27T20:10:07.022Z,0.00
2017-11-27T20:11:12.804Z,0.00
2017-11-27T20:12:19.390Z,0.00
2017-11-27T20:13:25.482Z,0.00
2017-11-27T20:14:31.687Z,0.00
2017-11-27T20:15:38.908Z,0.00
2017-11-27T20:16:43.910Z,0.00
2017-11-27T20:17:50.073Z,0.00
2017-11-27T20:18:56.278Z,0.00
2017-11-27T20:20:02.444Z,0.00
2017-11-27T20:21:08.695Z,0.00
2017-11-27T20:22:14.747Z,0.00
2017-11-27T20:23:20.834Z,0.00
2017-11-27T20:24:26.977Z,0.00
2017-11-27T20:25:33.143Z,0.00
2017-11-27T20:26:39.297Z,0.00
2017-11-27T20:27:45.506Z,0.00
2017-11-27T20:28:51.654Z,0.00
2017-11-27T20:29:57.742Z,0.00
2017-11-27T20:31:03.983Z,0.00
2017-11-27T20:32:10.180Z,0.00
2017-11-27T20:33:16.187Z,0.00
2017-11-27T20:34:21.825Z,0.00
2017-11-27T20:35:28.683Z,0.00
2017-11-27T20:36:34.786Z,0.00
2017-11-27T20:37:41.191Z,0.00
2017-11-27T20:38:46.951Z,0.00
2017-11-27T20:39:53.098Z,0.00
2017-11-27T20:40:59.492Z,0.00
2017-11-27T20:42:05.418Z,0.00
2017-11-27T20:43:11.612Z,0.00
2017-11-27T20:44:17.698Z,0.00
2017-11-27T20:45:23.852Z,0.00
2017-11-27T20:46:30.036Z,0.00
2017-11-27T20:47:36.297Z,0.00
2017-11-27T20:48:42.304Z,0.00
2017-11-27T20:49:47.898Z,0.00
2017-11-27T20:50:54.765Z,0.00
2017-11-27T20:52:00.784Z,0.00
2017-11-27T20:53:06.906Z,0.00
2017-11-27T20:54:12.646Z,0.00
2017-11-27T20:55:18.714Z,0.00
2017-11-27T20:56:25.342Z,0.00
2017-11-27T20:57:31.510Z,0.00
2017-11-27T20:58:37.811Z,0.00
2017-11-27T20:59:43.815Z,0.00
2017-11-27T21:00:50.074Z,0.00
2017-11-27T21:01:56.296Z,0.00
2017-11-27T21:03:01.797Z,0.00
2017-11-27T21:04:08.406Z,0.00
2017-11-27T21:05:14.697Z,0.00
2017-11-27T21:06:21.075Z,0.00
2017-11-27T21:07:26.944Z,0.00
2017-11-27T21:08:32.528Z,0.00
2017-11-27T21:09:39.255Z,0.00
2017-11-27T21:10:45.427Z,0.00
2017-11-27T21:11:51.595Z,0.00
2017-11-27T21:12:57.203Z,0.00
2017-11-27T21:14:03.911Z,0.00
2017-11-27T21:15:10.172Z,0.00
2017-11-27T21:16:16.247Z,0.00
2017-11-27T21:17:22.698Z,0.00
2017-11-27T21:18:28.529Z,0.00
2017-11-27T21:19:34.654Z,0.00
2017-11-27T21:20:40.791Z,0.00
2017-11-27T21:21:47.193Z,0.00
2017-11-27T21:22:53.096Z,0.00
2017-11-27T21:23:59.549Z,0.00
2017-11-27T21:25:04.971Z,0.00
2017-11-27T21:26:11.618Z,0.00
2017-11-27T21:27:17.844Z,0.00
2017-11-27T21:28:25.004Z,0.00
2017-11-27T21:29:30.069Z,0.00
2017-11-27T21:30:36.154Z,0.00
2017-11-27T21:31:42.668Z,0.00
2017-11-27T21:32:48.613Z,0.00
2017-11-27T21:33:54.775Z,0.00
2017-11-27T21:35:01.006Z,0.00
2017-11-27T21:36:08.204Z,0.00
2017-11-27T21:37:13.424Z,0.00
2017-11-27T21:38:19.423Z,0.00
2017-11-27T21:39:25.519Z,0.00
2017-11-27T21:40:31.979Z,0.00
2017-11-27T21:41:39.362Z,0.00
2017-11-27T21:42:43.579Z,0.00
2017-11-27T21:43:50.230Z,0.00
2017-11-27T21:44:56.510Z,0.00
2017-11-27T21:46:02.623Z,0.00
2017-11-27T21:47:10.654Z,0.00
2017-11-27T21:48:15.342Z,0.00
2017-11-27T21:49:21.948Z,0.00
2017-11-27T21:50:28.055Z,0.00
2017-11-27T21:51:33.185Z,0.00
2017-11-27T21:52:39.959Z,0.00
2017-11-27T21:53:45.183Z,0.00
2017-11-27T21:54:51.873Z,0.00
2017-11-27T21:55:57.997Z,0.00
2017-11-27T21:57:03.854Z,0.00
2017-11-27T21:58:10.200Z,0.00
2017-11-27T21:59:15.874Z,0.00
2017-11-27T22:00:22.450Z,0.00
2017-11-27T22:01:29.001Z,0.00
2017-11-27T22:02:34.976Z,0.00
2017-11-27T22:03:41.158Z,0.00
2017-11-27T22:04:47.213Z,0.00
2017-11-27T22:05:52.882Z,0.00
2017-11-27T22:06:59.405Z,0.00
2017-11-27T22:08:06.922Z,0.00
2017-11-27T22:09:12.769Z,0.00
2017-11-27T22:10:18.065Z,0.00
2017-11-27T22:11:23.566Z,0.00
2017-11-27T22:12:30.467Z,0.00
2017-11-27T22:13:37.010Z,0.00
2017-11-27T22:14:42.572Z,0.00
2017-11-27T22:15:48.206Z,0.00
2017-11-27T22:16:56.104Z,0.00
2017-11-27T22:18:01.880Z,0.00
2017-11-27T22:19:07.262Z,0.00
2017-11-27T22:20:13.425Z,0.00
2017-11-27T22:21:19.675Z,0.00
2017-11-27T22:22:25.745Z,0.00
2017-11-27T22:23:31.467Z,0.00
2017-11-27T22:24:37.356Z,0.00
2017-11-27T22:25:43.925Z,0.00
2017-11-27T22:26:51.368Z,0.00
2017-11-27T22:27:56.619Z,0.00
2017-11-27T22:29:02.750Z,0.00
2017-11-27T22:30:08.112Z,0.00
2017-11-27T22:31:14.847Z,0.00
2017-11-27T22:32:20.684Z,0.00
2017-11-27T22:33:27.234Z,0.00
2017-11-27T22:34:33.224Z,0.00
2017-11-27T22:35:38.955Z,0.00
2017-11-27T22:36:45.149Z,0.00
2017-11-27T22:37:51.170Z,0.00
2017-11-27T22:38:59.326Z,0.00
2017-11-27T22:40:03.669Z,0.00
2017-11-27T22:41:10.449Z,0.00
2017-11-27T22:42:16.958Z,0.00
2017-11-27T22:43:23.202Z,0.00
2017-11-27T22:44:28.961Z,0.00
2017-11-27T22:45:34.331Z,0.00
2017-11-27T22:46:41.166Z,0.00
2017-11-27T22:47:46.794Z,0.00
2017-11-27T22:48:52.881Z,0.00
2017-11-27T22:49:59.440Z,0.00
2017-11-27T22:51:06.717Z,0.00
2017-11-27T22:52:12.828Z,0.00
2017-11-27T22:53:17.657Z,0.00
2017-11-27T22:54:24.056Z,0.00
2017-11-27T22:55:32.988Z,0.00
2017-11-27T22:56:36.516Z,0.00
2017-11-27T22:57:42.337Z,0.00
2017-11-27T22:58:48.957Z,0.00
2017-11-27T22:59:54.359Z,0.00
2017-11-27T23:01:00.628Z,0.00
2017-11-27T23:02:07.428Z,0.00
2017-11-27T23:03:13.858Z,0.00
2017-11-27T23:04:19.783Z,0.00
2017-11-27T23:05:26.143Z,0.00
2017-11-27T23:06:31.473Z,0.00
2017-11-27T23:07:38.831Z,0.00